createdAt,value
2023-02-21T00:01:39.761Z,83.67
2023-02-21T00:04:06.192Z,82.35
2023-02-21T00:06:32.629Z,82.32
2023-02-21T00:08:59.041Z,80.96
2023-02-21T00:11:25.403Z,80.25
2023-02-21T00:13:51.841Z,79.74
2023-02-21T00:16:18.375Z,79.53
2023-02-21T00:18:44.815Z,79.58
2023-02-21T00:21:11.343Z,78.80
2023-02-21T00:23:37.822Z,78.83
2023-02-21T00:26:04.267Z,78.38
2023-02-21T00:28:32.113Z,78.54
2023-02-21T00:30:58.646Z,78.31
2023-02-21T00:33:25.246Z,78.23
2023-02-21T00:35:51.752Z,78.93
2023-02-21T00:38:18.435Z,77.39
2023-02-21T00:40:44.860Z,78.60
2023-02-21T00:43:11.352Z,77.74
2023-02-21T00:45:37.992Z,78.48
2023-02-21T00:48:04.483Z,78.24
2023-02-21T00:50:30.947Z,77.68
2023-02-21T00:52:57.446Z,77.54
2023-02-21T00:55:23.884Z,78.17
2023-02-21T00:57:50.344Z,78.61
2023-02-21T01:00:18.073Z,78.38
2023-02-21T01:02:44.576Z,77.85
2023-02-21T01:05:11.034Z,77.89
2023-02-21T01:07:37.471Z,78.55
2023-02-21T01:10:03.961Z,78.06
2023-02-21T01:12:30.414Z,78.18
2023-02-21T01:14:56.870Z,78.28
2023-02-21T01:17:23.316Z,78.13
2023-02-21T01:19:49.743Z,78.40
2023-02-21T01:22:16.199Z,78.02
2023-02-21T01:24:42.663Z,77.46
2023-02-21T01:27:09.140Z,76.91
2023-02-21T01:29:35.589Z,77.21
2023-02-21T01:32:02.114Z,78.22
2023-02-21T01:34:28.652Z,77.35
2023-02-21T01:36:55.121Z,77.85
2023-02-21T01:39:21.613Z,78.29
2023-02-21T01:41:48.154Z,78.29
2023-02-21T01:44:35.094Z,77.90
2023-02-21T01:47:01.511Z,78.57
2023-02-21T01:49:27.940Z,77.94
2023-02-21T01:51:54.380Z,78.89
2023-02-21T01:54:20.825Z,78.56
2023-02-21T01:56:47.349Z,77.83
2023-02-21T01:59:13.781Z,77.80
2023-02-21T02:02:16.125Z,78.94
2023-02-21T02:04:42.789Z,77.95
2023-02-21T02:07:09.848Z,78.66
2023-02-21T02:09:36.304Z,78.82
2023-02-21T02:12:07.392Z,78.16
2023-02-21T02:14:41.430Z,78.32
2023-02-21T02:17:16.485Z,78.61
2023-02-21T02:19:58.504Z,78.08
2023-02-21T02:22:30.283Z,78.58
2023-02-21T02:25:02.661Z,78.92
2023-02-21T02:27:29.062Z,79.27
2023-02-21T02:30:08.010Z,79.83
2023-02-21T02:32:38.600Z,80.16
2023-02-21T02:35:37.531Z,80.28
2023-02-21T02:38:17.399Z,81.21
2023-02-21T02:40:47.056Z,81.00
2023-02-21T02:43:16.467Z,82.35
2023-02-21T02:45:48.946Z,83.17
2023-02-21T02:48:16.876Z,83.21
2023-02-21T02:50:44.513Z,83.56
2023-02-21T02:53:10.964Z,82.88
2023-02-21T02:55:48.429Z,83.18
2023-02-21T02:58:14.836Z,83.36
2023-02-21T03:00:42.453Z,84.06
2023-02-21T03:03:11.938Z,83.86
2023-02-21T03:05:57.954Z,84.59
2023-02-21T03:08:30.092Z,84.55
2023-02-21T03:10:58.756Z,84.91
2023-02-21T03:13:29.836Z,85.29
2023-02-21T03:16:03.038Z,84.91
2023-02-21T03:18:47.298Z,86.55
2023-02-21T03:21:15.532Z,86.10
2023-02-21T03:23:42.211Z,84.44
2023-02-21T03:26:08.817Z,84.39
2023-02-21T03:28:35.223Z,84.45
2023-02-21T03:31:02.148Z,84.10
2023-02-21T03:33:28.633Z,84.54
2023-02-21T03:35:55.021Z,84.50
2023-02-21T03:38:21.555Z,84.66
2023-02-21T03:40:48.030Z,84.48
2023-02-21T03:43:14.461Z,85.13
2023-02-21T03:45:40.949Z,84.41
2023-02-21T03:48:07.484Z,85.44
2023-02-21T03:50:33.923Z,85.57
2023-02-21T03:53:00.377Z,86.13
2023-02-21T03:55:26.853Z,86.30
2023-02-21T03:57:53.404Z,85.82
2023-02-21T04:00:20.159Z,86.29
2023-02-21T04:02:46.541Z,86.03
2023-02-21T04:05:13.514Z,87.29
2023-02-21T04:07:39.974Z,87.76
2023-02-21T04:10:06.565Z,87.14
2023-02-21T04:12:32.981Z,86.81
2023-02-21T04:14:59.552Z,87.01
2023-02-21T04:17:26.108Z,88.06
2023-02-21T04:19:52.647Z,89.30
2023-02-21T04:22:19.165Z,90.18
2023-02-21T04:24:45.636Z,90.06
2023-02-21T04:27:12.067Z,90.53
2023-02-21T04:29:38.560Z,90.11
2023-02-21T04:32:05.136Z,89.67
2023-02-21T04:34:31.646Z,89.02
2023-02-21T04:36:58.068Z,89.05
2023-02-21T04:39:24.473Z,89.37
2023-02-21T04:41:50.908Z,90.08
2023-02-21T04:44:17.341Z,89.97
2023-02-21T04:46:43.857Z,90.22
2023-02-21T04:49:10.597Z,89.79
2023-02-21T04:51:37.054Z,89.79
2023-02-21T04:54:03.553Z,90.44
2023-02-21T04:56:30.203Z,89.61
2023-02-21T04:58:56.730Z,89.45
2023-02-21T05:01:23.401Z,89.17
2023-02-21T05:03:49.888Z,89.37
2023-02-21T05:06:23.058Z,89.27
2023-02-21T05:08:49.508Z,90.16
2023-02-21T05:11:16.530Z,90.10
2023-02-21T05:13:43.298Z,90.01
2023-02-21T05:16:10.161Z,89.39
2023-02-21T05:18:36.673Z,89.04
2023-02-21T05:21:03.494Z,88.92
2023-02-21T05:23:29.996Z,88.61
2023-02-21T05:25:56.626Z,88.76
2023-02-21T05:28:23.038Z,89.90
2023-02-21T05:30:49.628Z,89.69
2023-02-21T05:33:16.229Z,89.80
2023-02-21T05:35:42.717Z,89.82
2023-02-21T05:38:09.165Z,90.09
2023-02-21T05:40:35.727Z,90.10
2023-02-21T05:43:02.112Z,89.70
2023-02-21T05:45:28.543Z,90.12
2023-02-21T05:47:55.251Z,90.04
2023-02-21T05:50:21.719Z,90.44
2023-02-21T05:52:48.195Z,90.72
2023-02-21T05:55:14.671Z,90.94
2023-02-21T05:57:41.183Z,90.19
2023-02-21T06:00:07.822Z,90.41
2023-02-21T06:02:34.286Z,91.98
2023-02-21T06:05:00.674Z,91.24
2023-02-21T06:07:27.057Z,91.04
2023-02-21T06:09:53.417Z,91.55
2023-02-21T06:12:19.861Z,91.27
2023-02-21T06:14:46.283Z,91.11
2023-02-21T06:17:12.786Z,91.61
2023-02-21T06:19:39.269Z,91.19
2023-02-21T06:22:05.755Z,90.45
2023-02-21T06:24:32.208Z,91.46
2023-02-21T06:26:58.640Z,90.87
2023-02-21T06:29:25.095Z,91.13
2023-02-21T06:31:55.947Z,91.40
2023-02-21T06:34:22.403Z,92.09
2023-02-21T06:36:51.445Z,92.11
2023-02-21T06:39:17.880Z,92.06
2023-02-21T06:41:44.261Z,92.97
2023-02-21T06:44:11.125Z,92.88
2023-02-21T06:46:38.565Z,93.53
2023-02-21T06:49:05.103Z,92.81
2023-02-21T06:51:37.375Z,91.99
2023-02-21T06:54:03.815Z,91.98
2023-02-21T06:56:30.231Z,91.89
2023-02-21T06:58:57.422Z,91.95
2023-02-21T07:01:25.189Z,92.34
2023-02-21T07:03:51.775Z,92.40
2023-02-21T07:06:19.360Z,92.53
2023-02-21T07:08:47.204Z,91.21
2023-02-21T07:11:14.126Z,91.09
2023-02-21T07:13:40.822Z,90.93
2023-02-21T07:16:07.239Z,91.85
2023-02-21T07:18:33.953Z,91.22
2023-02-21T07:21:00.501Z,91.88
2023-02-21T07:23:27.091Z,92.27
2023-02-21T07:25:53.550Z,91.51
2023-02-21T07:28:19.920Z,90.72
2023-02-21T07:30:47.462Z,90.26
2023-02-21T07:33:13.997Z,89.16
2023-02-21T07:35:40.423Z,89.07
2023-02-21T07:38:06.824Z,88.99
2023-02-21T07:40:33.409Z,87.14
2023-02-21T07:43:01.378Z,87.11
2023-02-21T07:45:28.366Z,86.74
2023-02-21T07:47:54.865Z,86.36
2023-02-21T07:50:21.374Z,85.65
2023-02-21T07:52:49.371Z,85.37
2023-02-21T07:55:15.787Z,86.31
2023-02-21T07:57:43.337Z,84.24
2023-02-21T08:00:09.993Z,84.41
2023-02-21T08:02:36.460Z,83.54
2023-02-21T08:05:04.724Z,83.52
2023-02-21T08:07:31.326Z,82.50
2023-02-21T08:09:57.767Z,82.93
2023-02-21T08:12:24.306Z,83.29
2023-02-21T08:14:50.708Z,81.34
2023-02-21T08:17:17.246Z,81.08
2023-02-21T08:19:43.639Z,81.01
2023-02-21T08:22:10.093Z,80.06
2023-02-21T08:24:36.500Z,80.69
2023-02-21T08:27:03.314Z,76.52
2023-02-21T08:29:29.676Z,74.03
2023-02-21T08:31:56.135Z,73.65
2023-02-21T08:34:22.548Z,71.84
2023-02-21T08:36:50.277Z,67.99
2023-02-21T08:39:16.813Z,65.06
2023-02-21T08:41:44.353Z,64.73
2023-02-21T08:44:11.530Z,64.50
2023-02-21T08:46:37.985Z,66.79
2023-02-21T08:49:04.511Z,66.48
2023-02-21T08:51:31.503Z,68.62
2023-02-21T08:53:57.918Z,68.32
2023-02-21T08:56:24.382Z,68.15
2023-02-21T08:58:50.973Z,68.71
2023-02-21T09:01:17.834Z,69.60
2023-02-21T09:03:50.504Z,71.08
2023-02-21T09:06:17.150Z,71.52
2023-02-21T09:08:43.589Z,70.96
2023-02-21T09:11:10.063Z,71.00
2023-02-21T09:13:37.149Z,72.17
2023-02-21T09:16:03.911Z,72.30
2023-02-21T09:18:31.251Z,72.87
2023-02-21T09:20:57.775Z,73.60
2023-02-21T09:23:26.396Z,71.76
2023-02-21T09:25:52.876Z,73.63
2023-02-21T09:28:19.403Z,73.06
2023-02-21T09:30:46.184Z,72.91
2023-02-21T09:33:12.708Z,72.23
2023-02-21T09:35:39.109Z,72.32
2023-02-21T09:38:06.050Z,71.94
2023-02-21T09:40:32.421Z,72.51
2023-02-21T09:43:00.113Z,72.57
2023-02-21T09:45:28.423Z,71.89
2023-02-21T09:47:56.104Z,72.65
2023-02-21T09:50:23.715Z,72.45
2023-02-21T09:52:50.186Z,71.93
2023-02-21T09:55:19.796Z,72.66
2023-02-21T09:57:47.133Z,71.86
2023-02-21T10:00:22.159Z,72.29
2023-02-21T10:02:55.127Z,71.91
2023-02-21T10:05:39.337Z,72.03
2023-02-21T10:08:06.112Z,72.96
2023-02-21T10:10:59.130Z,73.11
2023-02-21T10:13:28.510Z,72.31
2023-02-21T10:16:01.090Z,71.34
2023-02-21T10:18:40.028Z,70.33
2023-02-21T10:21:11.763Z,70.76
2023-02-21T10:23:42.165Z,70.13
2023-02-21T10:26:12.268Z,71.56
2023-02-21T10:28:38.960Z,70.77
2023-02-21T10:31:08.372Z,71.77
2023-02-21T10:33:35.638Z,71.80
2023-02-21T10:36:03.000Z,71.88
2023-02-21T10:38:29.421Z,71.82
2023-02-21T10:40:56.425Z,72.30
2023-02-21T10:43:30.172Z,72.62
2023-02-21T10:46:02.795Z,72.71
2023-02-21T10:48:32.182Z,72.62
2023-02-21T10:51:07.998Z,72.34
2023-02-21T10:53:36.092Z,73.35
2023-02-21T10:56:19.800Z,73.68
2023-02-21T10:58:50.510Z,73.21
2023-02-21T11:01:19.815Z,72.92
2023-02-21T11:03:47.066Z,73.83
2023-02-21T11:06:42.865Z,72.96
2023-02-21T11:09:29.596Z,73.25
2023-02-21T11:12:14.596Z,70.77
2023-02-21T11:14:41.565Z,70.85
2023-02-21T11:17:15.998Z,68.71
2023-02-21T11:19:45.644Z,68.17
2023-02-21T11:22:12.187Z,69.05
2023-02-21T11:25:08.121Z,69.44
2023-02-21T11:27:35.128Z,69.43
2023-02-21T11:30:03.518Z,70.11
2023-02-21T11:32:31.447Z,70.53
2023-02-21T11:35:05.715Z,69.91
2023-02-21T11:37:32.346Z,67.64
2023-02-21T11:39:58.936Z,67.91
2023-02-21T11:42:25.417Z,68.69
2023-02-21T11:45:03.175Z,68.28
2023-02-21T11:47:32.166Z,66.98
2023-02-21T11:50:17.978Z,67.09
2023-02-21T11:52:47.048Z,67.06
2023-02-21T11:55:17.581Z,66.31
2023-02-21T11:57:53.060Z,66.48
2023-02-21T12:00:25.428Z,66.53
2023-02-21T12:02:54.943Z,66.15
2023-02-21T12:05:30.990Z,65.85
2023-02-21T12:08:16.080Z,67.31
2023-02-21T12:11:06.655Z,66.99
2023-02-21T12:13:48.355Z,67.28
2023-02-21T12:16:17.740Z,67.00
2023-02-21T12:18:53.886Z,68.65
2023-02-21T12:21:30.091Z,67.05
2023-02-21T12:24:15.486Z,67.96
2023-02-21T12:27:11.176Z,68.33
2023-02-21T12:29:37.612Z,69.83
2023-02-21T12:32:19.294Z,67.92
2023-02-21T12:34:58.152Z,69.78
2023-02-21T12:37:27.862Z,68.76
2023-02-21T12:40:05.102Z,68.11
2023-02-21T12:42:55.699Z,67.64
2023-02-21T12:45:28.272Z,67.61
2023-02-21T12:47:54.673Z,67.66
2023-02-21T12:50:21.813Z,67.71
2023-02-21T12:52:48.221Z,67.27
2023-02-21T12:55:21.719Z,67.77
2023-02-21T12:57:57.865Z,67.97
2023-02-21T13:00:31.055Z,66.36
2023-02-21T13:03:06.815Z,67.00
2023-02-21T13:05:36.611Z,67.67
2023-02-21T13:08:21.624Z,66.78
2023-02-21T13:11:07.093Z,67.18
2023-02-21T13:13:33.586Z,67.44
2023-02-21T13:16:03.622Z,66.47
2023-02-21T13:18:34.570Z,66.55
2023-02-21T13:21:19.941Z,67.02
2023-02-21T13:23:52.816Z,67.32
2023-02-21T13:26:38.384Z,66.62
2023-02-21T13:29:04.975Z,66.49
2023-02-21T13:31:35.126Z,66.66
2023-02-21T13:34:02.755Z,66.66
2023-02-21T13:36:32.079Z,66.20
2023-02-21T13:39:10.288Z,66.16
2023-02-21T13:41:37.500Z,65.84
2023-02-21T13:44:16.745Z,66.33
2023-02-21T13:46:43.195Z,66.48
2023-02-21T13:49:28.500Z,65.97
2023-02-21T13:51:54.986Z,65.84
2023-02-21T13:54:22.410Z,65.53
2023-02-21T13:56:48.943Z,65.81
2023-02-21T13:59:24.731Z,66.19
2023-02-21T14:01:51.202Z,66.04
2023-02-21T14:04:36.762Z,65.97
2023-02-21T14:07:03.219Z,67.07
2023-02-21T14:09:29.674Z,65.75
2023-02-21T14:11:56.211Z,66.71
2023-02-21T14:14:32.488Z,65.84
2023-02-21T14:16:58.842Z,65.69
2023-02-21T14:19:45.531Z,65.75
2023-02-21T14:22:15.076Z,66.15
2023-02-21T14:24:45.357Z,64.71
2023-02-21T14:27:12.204Z,65.09
2023-02-21T14:29:41.569Z,65.83
2023-02-21T14:32:08.171Z,64.75
2023-02-21T14:34:40.887Z,65.25
2023-02-21T14:37:19.679Z,64.83
2023-02-21T14:39:47.791Z,66.39
2023-02-21T14:42:14.185Z,65.74
2023-02-21T14:45:01.493Z,65.58
2023-02-21T14:47:38.914Z,65.55
2023-02-21T14:50:20.699Z,65.72
2023-02-21T14:53:02.501Z,67.10
2023-02-21T14:55:43.947Z,67.14
2023-02-21T14:58:19.511Z,67.35
2023-02-21T15:00:57.035Z,66.52
2023-02-21T15:03:29.524Z,66.64
2023-02-21T15:06:03.368Z,67.32
2023-02-21T15:08:30.321Z,67.10
2023-02-21T15:11:01.714Z,67.17
2023-02-21T15:13:29.184Z,67.49
2023-02-21T15:16:22.601Z,67.75
2023-02-21T15:18:59.155Z,66.43
2023-02-21T15:21:25.602Z,67.38
2023-02-21T15:24:02.696Z,67.31
2023-02-21T15:26:30.268Z,67.94
2023-02-21T15:29:03.856Z,67.26
2023-02-21T15:31:32.815Z,68.25
2023-02-21T15:33:59.295Z,67.96
2023-02-21T15:36:25.778Z,68.05
2023-02-21T15:38:52.168Z,68.27
2023-02-21T15:41:28.506Z,67.68
2023-02-21T15:43:54.909Z,68.06
2023-02-21T15:46:22.654Z,68.37
2023-02-21T15:48:49.246Z,69.04
2023-02-21T15:51:15.977Z,69.05
2023-02-21T15:53:42.693Z,68.83
2023-02-21T15:56:17.119Z,68.79
2023-02-21T15:59:02.123Z,68.66
2023-02-21T16:01:28.691Z,68.96
2023-02-21T16:04:12.995Z,69.31
2023-02-21T16:06:44.476Z,70.09
2023-02-21T16:09:13.996Z,70.09
2023-02-21T16:11:46.912Z,69.86
2023-02-21T16:14:17.504Z,70.14
2023-02-21T16:16:43.947Z,73.09
2023-02-21T16:19:10.333Z,75.23
2023-02-21T16:21:36.851Z,75.65
2023-02-21T16:24:22.313Z,76.44
2023-02-21T16:27:02.495Z,77.91
2023-02-21T16:29:29.010Z,78.73
2023-02-21T16:31:55.396Z,81.62
2023-02-21T16:34:21.830Z,80.91
2023-02-21T16:36:48.357Z,81.96
2023-02-21T16:39:14.991Z,81.11
2023-02-21T16:41:41.419Z,82.57
2023-02-21T16:44:07.885Z,82.93
2023-02-21T16:46:34.362Z,83.17
2023-02-21T16:49:00.919Z,82.75
2023-02-21T16:51:27.391Z,82.65
2023-02-21T16:53:53.918Z,82.29
2023-02-21T16:56:20.397Z,84.00
2023-02-21T16:58:48.548Z,84.85
2023-02-21T17:01:16.420Z,83.82
2023-02-21T17:03:43.127Z,84.17
2023-02-21T17:06:14.783Z,83.67
2023-02-21T17:08:41.601Z,84.32
2023-02-21T17:11:08.001Z,85.71
2023-02-21T17:13:34.479Z,85.87
2023-02-21T17:16:00.875Z,85.31
2023-02-21T17:18:27.319Z,86.14
2023-02-21T17:20:53.713Z,85.10
2023-02-21T17:23:20.328Z,84.82
2023-02-21T17:25:46.912Z,86.98
2023-02-21T17:28:13.418Z,86.48
2023-02-21T17:30:39.963Z,85.54
2023-02-21T17:33:08.413Z,86.76
2023-02-21T17:35:34.888Z,87.18
2023-02-21T17:38:01.353Z,88.36
2023-02-21T17:40:27.882Z,88.18
2023-02-21T17:42:54.521Z,87.68
2023-02-21T17:45:21.100Z,88.79
2023-02-21T17:47:47.974Z,88.87
2023-02-21T17:50:14.476Z,87.54
2023-02-21T17:52:41.226Z,86.81
2023-02-21T17:55:08.144Z,86.88
2023-02-21T17:57:35.692Z,86.86
2023-02-21T18:00:02.165Z,87.33
2023-02-21T18:02:28.604Z,87.49
2023-02-21T18:04:55.097Z,86.62
2023-02-21T18:07:21.617Z,86.86
2023-02-21T18:09:48.150Z,87.50
2023-02-21T18:12:14.542Z,88.17
2023-02-21T18:14:40.965Z,88.50
2023-02-21T18:17:07.336Z,89.33
2023-02-21T18:19:33.904Z,89.69
2023-02-21T18:22:00.359Z,89.93
2023-02-21T18:24:26.794Z,89.47
2023-02-21T18:26:53.166Z,89.50
2023-02-21T18:29:19.694Z,89.54
2023-02-21T18:31:46.353Z,88.15
2023-02-21T18:34:12.883Z,88.30
2023-02-21T18:36:39.426Z,89.23
2023-02-21T18:39:06.007Z,90.10
2023-02-21T18:41:32.569Z,90.48
2023-02-21T18:43:59.384Z,91.11
2023-02-21T18:46:25.822Z,90.54
2023-02-21T18:48:52.262Z,90.24
2023-02-21T18:51:19.134Z,90.83
2023-02-21T18:53:45.843Z,90.74
2023-02-21T18:56:12.788Z,89.72
2023-02-21T18:58:39.418Z,90.25
2023-02-21T19:01:06.233Z,92.04
2023-02-21T19:03:32.839Z,91.94
2023-02-21T19:05:59.606Z,91.29
2023-02-21T19:08:26.026Z,90.70
2023-02-21T19:10:52.464Z,90.54
2023-02-21T19:13:19.062Z,90.46
2023-02-21T19:15:45.705Z,90.25
2023-02-21T19:18:12.252Z,90.45
2023-02-21T19:20:39.114Z,90.69
2023-02-21T19:23:07.178Z,91.83
2023-02-21T19:25:33.608Z,92.70
2023-02-21T19:28:00.105Z,94.17
2023-02-21T19:30:30.630Z,93.66
2023-02-21T19:32:57.545Z,92.06
2023-02-21T19:35:24.816Z,91.58
2023-02-21T19:37:51.367Z,90.80
2023-02-21T19:40:18.139Z,91.22
2023-02-21T19:42:44.557Z,91.01
2023-02-21T19:45:11.165Z,91.20
2023-02-21T19:47:37.789Z,91.57
2023-02-21T19:50:04.293Z,90.52
2023-02-21T19:52:30.790Z,90.17
2023-02-21T19:54:57.230Z,90.39
2023-02-21T19:57:23.679Z,90.85
2023-02-21T19:59:50.086Z,91.60
2023-02-21T20:02:16.470Z,92.05
2023-02-21T20:04:43.075Z,92.37
2023-02-21T20:07:10.190Z,92.10
2023-02-21T20:09:37.058Z,92.02
2023-02-21T20:12:03.642Z,92.36
2023-02-21T20:14:30.163Z,91.61
2023-02-21T20:16:56.678Z,91.65
2023-02-21T20:19:23.459Z,91.39
2023-02-21T20:21:50.190Z,91.60
2023-02-21T20:24:16.753Z,91.74
2023-02-21T20:26:43.191Z,92.05
2023-02-21T20:29:09.663Z,91.16
2023-02-21T20:31:36.036Z,91.58
2023-02-21T20:34:02.873Z,92.88
2023-02-21T20:36:35.555Z,92.64
2023-02-21T20:39:03.079Z,92.23
2023-02-21T20:41:29.890Z,92.01
2023-02-21T20:43:56.611Z,91.67
2023-02-21T20:46:23.284Z,91.97
2023-02-21T20:48:49.735Z,91.60
2023-02-21T20:51:16.744Z,91.65
2023-02-21T20:53:43.663Z,92.59
2023-02-21T20:56:10.096Z,92.25
2023-02-21T20:58:36.542Z,92.45
2023-02-21T21:01:03.168Z,91.61
2023-02-21T21:03:29.759Z,91.98
2023-02-21T21:05:56.199Z,91.81
2023-02-21T21:08:22.575Z,91.51
2023-02-21T21:10:49.243Z,91.27
2023-02-21T21:13:15.925Z,91.53
2023-02-21T21:15:42.481Z,91.35
2023-02-21T21:18:09.267Z,91.81
2023-02-21T21:20:35.904Z,92.96
2023-02-21T21:23:02.997Z,92.26
2023-02-21T21:25:29.452Z,92.33
2023-02-21T21:27:55.936Z,92.40
2023-02-21T21:30:22.414Z,93.38
2023-02-21T21:32:49.164Z,94.59
2023-02-21T21:35:16.076Z,93.51
2023-02-21T21:37:42.702Z,93.37
2023-02-21T21:40:09.380Z,93.18
2023-02-21T21:42:35.909Z,92.50
2023-02-21T21:45:02.362Z,92.81
2023-02-21T21:47:29.502Z,91.96
2023-02-21T21:49:55.945Z,92.29
2023-02-21T21:52:22.544Z,92.32
2023-02-21T21:54:48.976Z,92.43
2023-02-21T21:57:16.369Z,92.97
2023-02-21T21:59:43.304Z,92.37
2023-02-21T22:02:10.044Z,93.49
2023-02-21T22:04:37.376Z,93.62
2023-02-21T22:07:04.010Z,92.80
2023-02-21T22:09:30.517Z,93.53
2023-02-21T22:11:57.101Z,93.29
2023-02-21T22:14:23.516Z,93.06
2023-02-21T22:16:50.414Z,93.06
2023-02-21T22:19:17.030Z,92.40
2023-02-21T22:21:43.537Z,93.44
2023-02-21T22:24:10.197Z,92.70
2023-02-21T22:26:36.930Z,92.98
2023-02-21T22:29:03.392Z,93.33
2023-02-21T22:31:29.899Z,93.51
2023-02-21T22:33:56.358Z,93.03
2023-02-21T22:36:22.821Z,93.61
2023-02-21T22:38:49.313Z,93.25
2023-02-21T22:41:28.889Z,93.51
2023-02-21T22:43:55.508Z,93.14
2023-02-21T22:46:23.193Z,93.29
2023-02-21T22:48:49.711Z,92.96
2023-02-21T22:51:16.873Z,92.67
2023-02-21T22:53:43.750Z,92.53
2023-02-21T22:56:11.996Z,93.20
2023-02-21T22:58:38.441Z,93.48
2023-02-21T23:01:05.072Z,93.63
2023-02-21T23:03:31.541Z,93.90
2023-02-21T23:05:58.046Z,93.82
2023-02-21T23:08:24.493Z,93.16
2023-02-21T23:10:50.916Z,93.62
2023-02-21T23:13:18.916Z,92.85
2023-02-21T23:15:45.708Z,92.59
2023-02-21T23:18:12.577Z,92.41
2023-02-21T23:20:39.002Z,92.69
2023-02-21T23:23:05.552Z,92.82
2023-02-21T23:25:33.728Z,93.02
2023-02-21T23:28:00.340Z,93.89
2023-02-21T23:30:26.838Z,93.12
2023-02-21T23:32:54.411Z,94.76
2023-02-21T23:35:20.812Z,94.46
2023-02-21T23:37:47.362Z,94.12
2023-02-21T23:40:14.811Z,94.52
2023-02-21T23:42:41.538Z,94.27
2023-02-21T23:45:08.060Z,93.21
2023-02-21T23:47:34.482Z,93.61
2023-02-21T23:50:00.948Z,93.93
2023-02-21T23:52:27.381Z,93.33
2023-02-21T23:54:53.836Z,93.67
2023-02-21T23:57:20.473Z,93.45
2023-02-21T23:59:46.964Z,94.05
